Time;durP1;ratioP1;P1;durP2;ratioP2;P2;SDS_P1;SDS_P2;PMS_P1;PMS_P2;Temp;Humidity;BMP_temperature;BMP_pressure;BME280_temperature;BME280_humidity;BME280_pressure;Samples;Min_cycle;Max_cycle;Signal;HPM_P1;HPM_P2
2021/09/26 00:01:24;;;;;;;1999.90;999.90;;;;;;;13.30;100.00;96302.50;5069610;28;20555;-70
2021/09/26 00:03:52;;;;;;;1999.90;999.90;;;;;;;13.32;100.00;96304.81;5069382;28;20266;-70
2021/09/26 00:06:19;;;;;;;1999.90;999.90;;;;;;;13.27;100.00;96304.91;5069173;28;20695;-70
2021/09/26 00:08:47;;;;;;;1999.90;999.90;;;;;;;12.92;99.38;96309.69;5069102;28;20265;-70
2021/09/26 00:11:14;;;;;;;1999.90;999.90;;;;;;;12.89;99.17;96310.28;5069073;28;20260;-71
2021/09/26 00:13:44;;;;;;;1999.90;999.90;;;;;;;12.76;98.26;96297.97;5069272;28;20210;-71
2021/09/26 00:16:12;;;;;;;1999.90;999.90;;;;;;;12.51;98.25;96308.78;5069022;28;20676;-71
2021/09/26 00:18:39;;;;;;;1999.90;999.90;;;;;;;12.48;98.19;96312.75;5069380;28;20582;-70
2021/09/26 00:21:06;;;;;;;1999.90;999.90;;;;;;;12.42;98.09;96300.09;5068822;28;20294;-71
2021/09/26 00:23:34;;;;;;;1999.90;999.90;;;;;;;12.41;98.54;96299.31;5069096;28;20197;-70
2021/09/26 00:26:03;;;;;;;1999.90;999.90;;;;;;;12.46;99.45;96301.06;5068918;28;20242;-71
2021/09/26 00:28:31;;;;;;;1999.90;999.90;;;;;;;12.51;100.00;96306.19;5068835;28;20204;-71
2021/09/26 00:31:00;;;;;;;1999.90;999.90;;;;;;;12.57;100.00;96297.25;5069126;28;20289;-71
2021/09/26 00:33:27;;;;;;;1999.90;999.90;;;;;;;12.54;100.00;96304.88;5069143;28;20258;-71
2021/09/26 00:35:54;;;;;;;1999.90;999.90;;;;;;;12.57;100.00;96299.06;5068836;28;20665;-71
2021/09/26 00:38:21;;;;;;;1999.90;999.90;;;;;;;12.69;100.00;96292.34;5068881;28;20193;-71
2021/09/26 00:40:50;;;;;;;1999.90;999.90;;;;;;;12.55;100.00;96291.56;5068888;28;20203;-71
2021/09/26 00:43:18;;;;;;;1999.90;999.90;;;;;;;12.36;100.00;96294.16;5069034;28;20250;-71
2021/09/26 00:45:45;;;;;;;1999.90;999.90;;;;;;;12.25;100.00;96292.03;5069148;28;20193;-71
2021/09/26 00:48:14;;;;;;;1999.90;999.90;;;;;;;12.23;100.00;96294.13;5068676;28;20777;-71
2021/09/26 00:50:41;;;;;;;1999.90;999.90;;;;;;;12.08;100.00;96298.50;5068718;28;20242;-71
2021/09/26 00:53:08;;;;;;;1999.90;999.90;;;;;;;11.82;100.00;96296.50;5069196;28;20201;-71
2021/09/26 00:55:35;;;;;;;1999.90;999.90;;;;;;;11.82;100.00;96294.69;5069001;28;20204;-71
2021/09/26 00:58:02;;;;;;;1999.90;999.90;;;;;;;11.83;100.00;96311.88;5069484;28;20197;-71
2021/09/26 01:00:30;;;;;;;1999.90;999.90;;;;;;;11.77;99.84;96296.59;5069219;28;20200;-71
2021/09/26 01:02:57;;;;;;;1999.90;999.90;;;;;;;11.71;99.42;96302.88;5069124;28;20618;-72
2021/09/26 01:05:27;;;;;;;1999.90;999.90;;;;;;;11.69;99.48;96302.41;5069066;28;20200;-71
2021/09/26 01:08:16;;;;;;;1999.90;999.90;;;;;;;11.60;98.68;96300.44;5068980;28;20680;-71
2021/09/26 01:10:56;;;;;;;1999.90;999.90;;;;;;;11.55;98.86;96303.09;5068565;28;20238;-71
2021/09/26 01:13:35;;;;;;;1999.90;999.90;;;;;;;11.58;98.82;96302.53;5068646;28;20715;-71
2021/09/26 01:16:13;;;;;;;1999.90;999.90;;;;;;;11.53;99.44;96302.59;5069008;28;20200;-71
2021/09/26 01:18:56;;;;;;;1999.90;999.90;;;;;;;11.37;100.00;96305.63;5068586;28;20985;-71
2021/09/26 01:21:36;;;;;;;1999.90;999.90;;;;;;;11.27;100.00;96303.13;5072062;28;20279;-72
2021/09/26 01:24:37;;;;;;;1999.90;999.90;;;;;;;11.21;100.00;96308.41;5072427;28;20619;-71
2021/09/26 01:27:29;;;;;;;1999.90;999.90;;;;;;;11.23;100.00;96314.13;5072417;28;20267;-71
2021/09/26 01:30:18;;;;;;;1999.90;999.90;;;;;;;11.18;100.00;96308.97;5072071;28;20309;-71
2021/09/26 01:32:54;;;;;;;1999.90;999.90;;;;;;;11.10;100.00;96309.56;5071883;28;20208;-70
2021/09/26 01:35:22;;;;;;;1999.90;999.90;;;;;;;11.11;100.00;96311.09;5072348;28;20188;-70
2021/09/26 01:38:00;;;;;;;1999.90;999.90;;;;;;;11.14;100.00;96309.78;5072207;28;20200;-71
2021/09/26 01:40:33;;;;;;;1999.90;999.90;;;;;;;11.00;100.00;96307.09;5072352;28;20196;-71
2021/09/26 01:43:07;;;;;;;1999.90;999.90;;;;;;;11.01;100.00;96300.06;5071960;28;20638;-71
2021/09/26 01:45:42;;;;;;;1999.90;999.90;;;;;;;11.00;100.00;96309.69;5071900;28;20304;-71
2021/09/26 01:48:15;;;;;;;1999.90;999.90;;;;;;;10.93;100.00;96319.63;5072028;28;20188;-71
2021/09/26 01:50:43;;;;;;;1999.90;999.90;;;;;;;10.84;99.82;96305.66;5071965;28;20302;-71
2021/09/26 01:53:12;;;;;;;1999.90;999.90;;;;;;;10.76;99.55;96308.84;5070578;28;20227;-72
2021/09/26 01:55:41;;;;;;;1999.90;999.90;;;;;;;10.71;99.97;96306.28;5071880;28;20232;-72
2021/09/26 01:58:09;;;;;;;1999.90;999.90;;;;;;;10.68;100.00;96306.84;5070997;28;20200;-71
2021/09/26 02:00:39;;;;;;;1999.90;999.90;;;;;;;10.59;100.00;96303.28;5069589;28;20192;-72
2021/09/26 02:03:07;;;;;;;1999.90;999.90;;;;;;;10.55;100.00;96312.69;5068378;28;20220;-72
2021/09/26 02:05:38;;;;;;;1999.90;999.90;;;;;;;10.61;100.00;96309.00;5071064;28;20204;-72
2021/09/26 02:08:07;;;;;;;1999.90;999.90;;;;;;;10.50;100.00;96317.91;5071236;28;20181;-71
2021/09/26 02:10:36;;;;;;;1999.90;999.90;;;;;;;10.43;100.00;96320.81;5070359;28;20871;-71
2021/09/26 02:13:06;;;;;;;1999.90;999.90;;;;;;;10.43;100.00;96320.03;5071471;28;20220;-71
2021/09/26 02:15:34;;;;;;;1999.90;999.90;;;;;;;10.43;100.00;96314.84;5071185;28;20193;-71
2021/09/26 02:18:05;;;;;;;1999.90;999.90;;;;;;;10.39;100.00;96319.03;5071522;28;20192;-71
2021/09/26 02:20:33;;;;;;;1999.90;999.90;;;;;;;10.38;100.00;96312.28;5071214;28;20264;-71
2021/09/26 02:23:01;;;;;;;1999.90;999.90;;;;;;;10.35;100.00;96313.63;5071333;28;20262;-71
2021/09/26 02:25:28;;;;;;;1999.90;999.90;;;;;;;10.40;100.00;96310.19;5071515;28;20333;-71
2021/09/26 02:27:56;;;;;;;1999.90;999.90;;;;;;;10.48;100.00;96317.41;5070990;28;20283;-71
2021/09/26 02:30:26;;;;;;;1999.90;999.90;;;;;;;10.57;100.00;96313.94;5070473;28;20759;-71
2021/09/26 02:32:54;;;;;;;1999.90;999.90;;;;;;;10.61;100.00;96316.78;5070866;28;20209;-71
2021/09/26 02:35:23;;;;;;;1999.90;999.90;;;;;;;10.57;100.00;96326.94;5071039;28;20197;-72
2021/09/26 02:37:50;;;;;;;1999.90;999.90;;;;;;;10.60;100.00;96325.63;5071075;28;20328;-71
2021/09/26 02:40:18;;;;;;;1999.90;999.90;;;;;;;10.57;100.00;96320.97;5071018;28;21002;-72
2021/09/26 02:42:57;;;;;;;1999.90;999.90;;;;;;;10.47;100.00;96315.84;5070716;28;20201;-71
2021/09/26 02:45:32;;;;;;;1999.90;999.90;;;;;;;10.42;100.00;96323.69;5070950;28;20557;-71
2021/09/26 02:48:04;;;;;;;1999.90;999.90;;;;;;;10.36;100.00;96334.09;5071092;28;20206;-72
2021/09/26 02:50:33;;;;;;;1999.90;999.90;;;;;;;10.30;100.00;96334.44;5070879;28;20200;-71
2021/09/26 02:53:02;;;;;;;1999.90;999.90;;;;;;;10.24;100.00;96335.50;5070647;28;20212;-72
2021/09/26 02:55:30;;;;;;;1999.90;999.90;;;;;;;10.21;100.00;96331.59;5070498;28;20200;-71
2021/09/26 02:57:58;;;;;;;1999.90;999.90;;;;;;;10.11;100.00;96331.63;5070628;28;20301;-71
2021/09/26 03:00:32;;;;;;;1999.90;999.90;;;;;;;10.05;100.00;96334.56;5070487;28;20208;-72
2021/09/26 03:03:07;;;;;;;1999.90;999.90;;;;;;;9.88;100.00;96332.31;5070681;28;20232;-71
2021/09/26 03:05:36;;;;;;;1999.90;999.90;;;;;;;9.88;100.00;96332.31;5070181;28;20200;-71
2021/09/26 03:08:04;;;;;;;1999.90;999.90;;;;;;;9.85;100.00;96338.81;5070270;28;20204;-71
2021/09/26 03:10:31;;;;;;;1999.90;999.90;;;;;;;9.78;99.58;96335.72;5070161;28;20200;-71
2021/09/26 03:12:58;;;;;;;1999.90;999.90;;;;;;;9.68;99.99;96335.00;5070299;28;20738;-71
2021/09/26 03:15:25;;;;;;;1999.90;999.90;;;;;;;9.67;100.00;96336.03;5070422;28;20676;-72
2021/09/26 03:17:52;;;;;;;1999.90;999.90;;;;;;;9.65;100.00;96335.53;5069951;28;20653;-71
2021/09/26 03:20:19;;;;;;;1999.90;999.90;;;;;;;9.60;100.00;96333.75;5069978;28;20228;-72
2021/09/26 03:22:48;;;;;;;1999.90;999.90;;;;;;;9.61;100.00;96337.13;5069867;28;20232;-71
2021/09/26 03:25:15;;;;;;;1999.90;999.90;;;;;;;9.63;100.00;96340.19;5070003;28;20192;-71
2021/09/26 03:27:42;;;;;;;1999.90;999.90;;;;;;;9.63;100.00;96337.59;5070159;28;20277;-71
2021/09/26 03:30:11;;;;;;;1999.90;999.90;;;;;;;9.67;100.00;96336.03;5069973;28;20253;-71
2021/09/26 03:32:38;;;;;;;1999.90;999.90;;;;;;;9.56;100.00;96330.13;5069720;28;20235;-71
2021/09/26 03:35:07;;;;;;;1999.90;999.90;;;;;;;9.62;100.00;96328.25;5069705;28;20207;-71
2021/09/26 03:37:34;;;;;;;1999.90;999.90;;;;;;;9.58;100.00;96335.03;5070036;28;20245;-71
2021/09/26 03:40:04;;;;;;;1999.90;999.90;;;;;;;9.48;100.00;96333.25;5069683;28;20203;-71
2021/09/26 03:42:31;;;;;;;1999.90;999.90;;;;;;;9.38;100.00;96334.06;5069026;28;20598;-71
2021/09/26 03:44:58;;;;;;;1999.90;999.90;;;;;;;9.36;100.00;96330.97;5069784;28;20283;-72
2021/09/26 03:47:25;;;;;;;1999.90;999.90;;;;;;;9.43;100.00;96339.22;5069872;28;20196;-72
2021/09/26 03:49:52;;;;;;;1999.90;999.90;;;;;;;9.45;100.00;96326.78;5069408;28;20201;-71
2021/09/26 03:52:19;;;;;;;1999.90;999.90;;;;;;;9.55;100.00;96328.56;5069243;28;20220;-71
2021/09/26 03:54:47;;;;;;;1999.90;999.90;;;;;;;9.49;100.00;96327.03;5069712;28;20762;-71
2021/09/26 03:57:15;;;;;;;1999.90;999.90;;;;;;;9.42;100.00;96324.72;5069612;28;20277;-71
2021/09/26 03:59:42;;;;;;;1999.90;999.90;;;;;;;9.49;100.00;96322.63;5069593;28;20235;-71
2021/09/26 04:02:09;;;;;;;1999.90;999.90;;;;;;;9.48;100.00;96335.84;5069119;28;20251;-71
2021/09/26 04:04:36;;;;;;;1999.90;999.90;;;;;;;9.45;100.00;96334.56;5069591;28;20203;-72
2021/09/26 04:07:04;;;;;;;1999.90;999.90;;;;;;;9.34;100.00;96335.63;5069304;28;20254;-72
2021/09/26 04:09:31;;;;;;;1999.90;999.90;;;;;;;9.26;100.00;96338.78;5069199;28;20251;-72
2021/09/26 04:11:58;;;;;;;1999.90;999.90;;;;;;;9.21;100.00;96343.97;5069289;28;20247;-71
2021/09/26 04:14:26;;;;;;;1999.90;999.90;;;;;;;9.16;100.00;96346.59;5069527;28;20229;-72
2021/09/26 04:16:53;;;;;;;1999.90;999.90;;;;;;;9.20;100.00;96342.41;5069354;28;20200;-72
2021/09/26 04:19:20;;;;;;;1999.90;999.90;;;;;;;9.19;100.00;96345.25;5068980;28;20286;-71
2021/09/26 04:21:50;;;;;;;1999.90;999.90;;;;;;;9.22;100.00;96342.91;5069082;28;20188;-71
2021/09/26 04:24:18;;;;;;;1999.90;999.90;;;;;;;9.14;100.00;96340.88;5069255;28;20587;-71
2021/09/26 04:26:45;;;;;;;1999.90;999.90;;;;;;;9.11;100.00;96341.41;5069052;28;20192;-71
2021/09/26 04:29:13;;;;;;;1999.90;999.90;;;;;;;9.09;100.00;96343.47;5068841;28;20215;-71
2021/09/26 04:31:41;;;;;;;1999.90;999.90;;;;;;;9.10;100.00;96339.84;5068811;28;20196;-70
2021/09/26 04:34:08;;;;;;;1999.90;999.90;;;;;;;9.13;100.00;96338.53;5069211;28;20207;-72
2021/09/26 04:36:36;;;;;;;1999.90;999.90;;;;;;;9.13;100.00;96343.72;5068868;28;20672;-70
2021/09/26 04:39:03;;;;;;;1999.90;999.90;;;;;;;9.13;100.00;96339.31;5069023;28;20200;-70
2021/09/26 04:41:31;;;;;;;1999.90;999.90;;;;;;;9.28;100.00;96343.69;5068733;28;20197;-73
2021/09/26 04:43:58;;;;;;;1999.90;999.90;;;;;;;9.27;100.00;96342.91;5069155;28;20226;-71
2021/09/26 04:46:25;;;;;;;1999.90;999.90;;;;;;;9.35;100.00;96346.78;5068987;28;20199;-72
2021/09/26 04:48:54;;;;;;;1999.90;999.90;;;;;;;9.38;100.00;96351.44;5068888;28;20236;-71
2021/09/26 04:51:21;;;;;;;1999.90;999.90;;;;;;;9.44;100.00;96351.16;5068978;28;20196;-71
2021/09/26 04:53:48;;;;;;;1999.90;999.90;;;;;;;9.46;100.00;96362.03;5070091;28;20227;-71
2021/09/26 04:56:15;;;;;;;1999.90;999.90;;;;;;;9.52;100.00;96363.59;5072910;28;20660;-72
2021/09/26 04:58:42;;;;;;;1999.90;999.90;;;;;;;9.61;100.00;96357.88;5072954;28;20253;-71
2021/09/26 05:01:10;;;;;;;1999.90;999.90;;;;;;;9.70;100.00;96354.47;5072756;28;20737;-71
2021/09/26 05:03:37;;;;;;;1999.90;999.90;;;;;;;9.75;100.00;96361.44;5073006;28;20618;-71
2021/09/26 05:06:05;;;;;;;1999.90;999.90;;;;;;;9.74;100.00;96358.06;5072571;28;20208;-73
2021/09/26 05:08:32;;;;;;;1999.90;999.90;;;;;;;9.78;100.00;96358.31;5072411;28;20205;-71
2021/09/26 05:10:59;;;;;;;1999.90;999.90;;;;;;;9.83;100.00;96358.28;5072431;28;20231;-71
2021/09/26 05:13:27;;;;;;;1999.90;999.90;;;;;;;9.89;100.00;96360.59;5072236;28;21006;-71
2021/09/26 05:15:54;;;;;;;1999.90;999.90;;;;;;;9.97;100.00;96356.66;5072621;28;20200;-71
2021/09/26 05:18:21;;;;;;;1999.90;999.90;;;;;;;10.07;100.00;96359.19;5072661;28;20219;-72
2021/09/26 05:20:52;;;;;;;1999.90;999.90;;;;;;;10.25;100.00;96356.03;5072055;28;20740;-72
2021/09/26 05:23:21;;;;;;;1999.90;999.90;;;;;;;10.36;100.00;96351.53;5072476;28;20268;-73
2021/09/26 05:25:49;;;;;;;1999.90;999.90;;;;;;;10.47;100.00;96362.63;5072239;28;20672;-72
2021/09/26 05:28:16;;;;;;;1999.90;999.90;;;;;;;10.60;100.00;96364.63;5072162;28;20196;-72
2021/09/26 05:30:44;;;;;;;1999.90;999.90;;;;;;;10.81;100.00;96363.41;5072324;28;20261;-71
2021/09/26 05:33:12;;;;;;;1999.90;999.90;;;;;;;11.69;100.00;96357.06;5071917;28;20321;-71
2021/09/26 05:35:39;;;;;;;1999.90;999.90;;;;;;;12.86;99.55;96363.00;5072191;28;20284;-71
2021/09/26 05:38:06;;;;;;;1999.90;999.90;;;;;;;14.00;93.73;96364.84;5072252;28;20219;-72
2021/09/26 05:40:35;;;;;;;1999.90;999.90;;;;;;;15.43;86.99;96376.97;5072121;28;20196;-71
2021/09/26 05:43:02;;;;;;;1999.90;999.90;;;;;;;16.52;80.23;96379.69;5071896;28;20196;-72
2021/09/26 05:45:29;;;;;;;1999.90;999.90;;;;;;;16.94;77.88;96380.75;5071740;28;20212;-72
2021/09/26 05:47:56;;;;;;;1999.90;999.90;;;;;;;17.71;74.19;96382.41;5071815;28;20200;-72
2021/09/26 05:50:23;;;;;;;1999.90;999.90;;;;;;;17.77;72.50;96381.94;5071961;28;20201;-72
2021/09/26 05:52:50;;;;;;;1999.90;999.90;;;;;;;17.35;73.81;96380.19;5071914;28;20212;-71
2021/09/26 05:55:17;;;;;;;1999.90;999.90;;;;;;;16.92;75.02;96382.94;5071834;28;20281;-71
2021/09/26 05:57:46;;;;;;;1999.90;999.90;;;;;;;17.01;75.16;96381.06;5071519;28;20764;-72
2021/09/26 06:00:14;;;;;;;1999.90;999.90;;;;;;;17.56;74.09;96381.06;5071402;28;20664;-70
2021/09/26 06:02:41;;;;;;;1999.90;999.90;;;;;;;18.24;72.19;96381.78;5071931;28;20265;-70
2021/09/26 06:05:10;;;;;;;1999.90;999.90;;;;;;;18.56;69.50;96381.13;5070723;28;20196;-70
2021/09/26 06:07:38;;;;;;;1999.90;999.90;;;;;;;18.24;70.02;96379.94;5071295;28;20273;-70
2021/09/26 06:10:06;;;;;;;1999.90;999.90;;;;;;;17.90;72.38;96375.66;5071731;28;20200;-69
2021/09/26 06:12:33;;;;;;;1999.90;999.90;;;;;;;17.41;75.44;96378.94;5071478;28;20220;-72
2021/09/26 06:15:04;;;;;;;1999.90;999.90;;;;;;;17.06;76.88;96375.66;5071121;28;20930;-70
2021/09/26 06:17:31;;;;;;;1999.90;999.90;;;;;;;17.03;76.63;96373.66;5071548;28;20216;-70
2021/09/26 06:19:58;;;;;;;1999.90;999.90;;;;;;;16.57;80.50;96377.69;5071561;28;21063;-71
2021/09/26 06:22:25;;;;;;;1999.90;999.90;;;;;;;16.56;81.94;96370.13;5071385;28;20201;-71
2021/09/26 06:24:53;;;;;;;1999.90;999.90;;;;;;;16.46;80.77;96371.19;5070800;28;20197;-72
2021/09/26 06:27:21;;;;;;;1999.90;999.90;;;;;;;16.41;81.42;96370.56;5071233;28;20231;-72
2021/09/26 06:29:48;;;;;;;1999.90;999.90;;;;;;;16.49;81.70;96370.56;5070856;28;20197;-72
2021/09/26 06:32:16;;;;;;;1999.90;999.90;;;;;;;16.46;82.52;96370.44;5070825;28;20672;-70
2021/09/26 06:34:44;;;;;;;1999.90;999.90;;;;;;;16.55;83.70;96371.19;5071291;28;20661;-71
2021/09/26 06:37:11;;;;;;;1999.90;999.90;;;;;;;16.76;83.30;96369.50;5071072;28;20210;-70
2021/09/26 06:39:38;;;;;;;1999.90;999.90;;;;;;;16.95;82.21;96362.06;5070913;28;20257;-70
2021/09/26 06:42:06;;;;;;;1999.90;999.90;;;;;;;16.92;83.17;96367.19;5066852;28;20204;-70
2021/09/26 06:44:33;;;;;;;1999.90;999.90;;;;;;;16.70;84.24;96365.50;5062962;28;20209;-70
2021/09/26 06:47:00;;;;;;;1999.90;999.90;;;;;;;16.64;84.72;96371.97;5070604;28;20200;-70
2021/09/26 06:49:28;;;;;;;1999.90;999.90;;;;;;;16.68;84.83;96372.94;5070697;28;20201;-70
2021/09/26 06:51:56;;;;;;;1999.90;999.90;;;;;;;16.97;84.33;96369.66;5070585;28;20196;-71
2021/09/26 06:54:22;;;;;;;1999.90;999.90;;;;;;;17.26;81.38;96372.34;5070299;28;20228;-72
2021/09/26 06:56:50;;;;;;;1999.90;999.90;;;;;;;17.31;80.33;96374.81;5070340;28;20299;-72
2021/09/26 06:59:17;;;;;;;1999.90;999.90;;;;;;;17.39;80.51;96371.38;5070775;28;20215;-73
2021/09/26 07:01:44;;;;;;;1999.90;999.90;;;;;;;17.44;79.57;96378.31;5070311;28;20209;-72
2021/09/26 07:04:11;;;;;;;1999.90;999.90;;;;;;;17.53;80.36;96377.19;5070197;28;20196;-72
2021/09/26 07:06:40;;;;;;;1999.90;999.90;;;;;;;17.50;81.71;96372.56;5070449;28;20250;-72
2021/09/26 07:09:07;;;;;;;1999.90;999.90;;;;;;;17.73;80.71;96370.50;5070456;28;20288;-70
2021/09/26 07:11:34;;;;;;;1999.90;999.90;;;;;;;17.83;79.09;96374.63;5070151;28;20204;-71
2021/09/26 07:14:01;;;;;;;1999.90;999.90;;;;;;;18.01;80.05;96374.22;5070111;28;20327;-70
2021/09/26 07:16:29;;;;;;;1999.90;999.90;;;;;;;17.66;79.91;96378.09;5070038;28;20200;-71
2021/09/26 07:18:56;;;;;;;1999.90;999.90;;;;;;;17.61;80.76;96380.91;5069885;28;20196;-70
2021/09/26 07:21:23;;;;;;;1999.90;999.90;;;;;;;17.35;81.00;96373.09;5069700;28;20259;-70
2021/09/26 07:23:51;;;;;;;1999.90;999.90;;;;;;;17.69;80.83;96369.56;5070048;28;20200;-70
2021/09/26 07:26:19;;;;;;;1999.90;999.90;;;;;;;17.75;80.16;96373.56;5069776;28;20236;-70
2021/09/26 07:28:46;;;;;;;1999.90;999.90;;;;;;;17.95;80.12;96369.44;5070108;28;20192;-70
2021/09/26 07:31:14;;;;;;;1999.90;999.90;;;;;;;18.18;79.96;96364.69;5069710;28;20205;-70
2021/09/26 07:33:41;;;;;;;1999.90;999.90;;;;;;;18.44;76.78;96368.66;5070058;28;20603;-70
2021/09/26 07:36:09;;;;;;;1999.90;999.90;;;;;;;18.62;77.05;96369.31;5069893;28;20236;-70
2021/09/26 07:38:36;;;;;;;1999.90;999.90;;;;;;;19.01;75.97;96369.91;5069475;28;20669;-70
2021/09/26 07:41:05;;;;;;;1999.90;999.90;;;;;;;19.15;75.93;96371.13;5069773;28;20204;-70
2021/09/26 07:43:32;;;;;;;1999.90;999.90;;;;;;;19.38;74.36;96374.13;5069757;28;20250;-70
2021/09/26 07:45:59;;;;;;;1999.90;999.90;;;;;;;19.59;72.37;96371.44;5069481;28;20253;-70
2021/09/26 07:48:26;;;;;;;1999.90;999.90;;;;;;;19.27;72.31;96368.53;5069738;28;20197;-70
2021/09/26 07:50:54;;;;;;;1999.90;999.90;;;;;;;19.24;74.79;96368.41;5069475;28;20192;-70
2021/09/26 07:53:22;;;;;;;1999.90;999.90;;;;;;;19.34;72.68;96371.38;5069283;28;20704;-70
2021/09/26 07:55:51;;;;;;;1999.90;999.90;;;;;;;19.44;72.51;96372.84;5069452;28;20638;-70
2021/09/26 07:58:19;;;;;;;1999.90;999.90;;;;;;;19.55;72.59;96383.75;5069259;28;20197;-70
2021/09/26 08:00:46;;;;;;;1999.90;999.90;;;;;;;19.67;72.23;96375.84;5068945;28;20658;-70
2021/09/26 08:03:14;;;;;;;1999.90;999.90;;;;;;;19.91;72.24;96373.22;5068306;28;20189;-70
2021/09/26 08:05:41;;;;;;;1999.90;999.90;;;;;;;20.13;72.10;96367.44;5069406;28;20197;-70
2021/09/26 08:08:08;;;;;;;1999.90;999.90;;;;;;;20.07;71.63;96373.31;5069482;28;20262;-70
2021/09/26 08:10:35;;;;;;;1999.90;999.90;;;;;;;20.17;70.97;96364.94;5069084;28;20203;-70
2021/09/26 08:13:02;;;;;;;1999.90;999.90;;;;;;;20.52;71.40;96362.56;5068950;28;20234;-70
2021/09/26 08:15:31;;;;;;;1999.90;999.90;;;;;;;20.81;70.49;96364.09;5069188;28;20258;-69
2021/09/26 08:17:59;;;;;;;1999.90;999.90;;;;;;;21.15;67.06;96368.03;5053856;28;20223;-70
2021/09/26 08:20:26;;;;;;;1999.90;999.90;;;;;;;21.11;67.01;96361.88;5048598;28;20236;-70
2021/09/26 08:22:54;;;;;;;1999.90;999.90;;;;;;;21.08;65.70;96346.66;5049199;28;20220;-69
2021/09/26 08:25:22;;;;;;;1999.90;999.90;;;;;;;21.21;66.44;96351.59;5049252;28;20220;-70
2021/09/26 08:27:50;;;;;;;1999.90;999.90;;;;;;;21.10;67.71;96345.22;5048468;28;20197;-69
2021/09/26 08:30:19;;;;;;;1999.90;999.90;;;;;;;21.24;67.72;96345.63;5049204;28;20244;-69
2021/09/26 08:32:48;;;;;;;1999.90;999.90;;;;;;;21.24;67.52;96350.13;5048964;28;20201;-68
2021/09/26 08:35:17;;;;;;;1999.90;999.90;;;;;;;21.10;66.66;96339.19;5049036;28;20225;-70
2021/09/26 08:37:44;;;;;;;1999.90;999.90;;;;;;;21.21;66.37;96345.53;5049117;28;20253;-70
2021/09/26 08:40:13;;;;;;;1999.90;999.90;;;;;;;21.45;65.26;96346.13;5048781;28;20255;-70
2021/09/26 08:42:41;;;;;;;1999.90;999.90;;;;;;;21.84;62.66;96333.03;5049170;28;20193;-69
2021/09/26 08:45:12;;;;;;;1999.90;999.90;;;;;;;22.09;62.21;96339.66;5050034;28;20244;-68
2021/09/26 08:47:39;;;;;;;1999.90;999.90;;;;;;;22.17;59.20;96330.75;5048637;28;20269;-69
2021/09/26 08:50:10;;;;;;;1999.90;999.90;;;;;;;22.10;60.79;96335.13;5048693;28;20250;-69
2021/09/26 08:52:38;;;;;;;1999.90;999.90;;;;;;;22.29;60.51;96330.63;5052930;28;20578;-69
2021/09/26 08:55:05;;;;;;;1999.90;999.90;;;;;;;22.52;59.92;96329.91;5068487;28;20228;-69
2021/09/26 08:57:33;;;;;;;1999.90;999.90;;;;;;;22.64;58.24;96330.56;5068551;28;20199;-70
2021/09/26 09:00:00;;;;;;;1999.90;999.90;;;;;;;22.84;57.84;96333.97;5068595;28;20236;-70
2021/09/26 09:02:27;;;;;;;1999.90;999.90;;;;;;;22.74;57.20;96324.72;5068798;28;20204;-69
2021/09/26 09:04:54;;;;;;;1999.90;999.90;;;;;;;22.94;59.02;96324.69;5068821;28;20197;-69
2021/09/26 09:07:23;;;;;;;1999.90;999.90;;;;;;;23.22;57.16;96317.22;5068972;28;20204;-69
2021/09/26 09:09:52;;;;;;;1999.90;999.90;;;;;;;23.24;55.80;96311.56;5068760;28;20739;-70
2021/09/26 09:12:25;;;;;;;1999.90;999.90;;;;;;;23.14;55.72;96308.38;5068437;28;20201;-70
2021/09/26 09:14:54;;;;;;;1999.90;999.90;;;;;;;23.28;55.12;96309.72;5068601;28;20737;-69
2021/09/26 09:17:29;;;;;;;1999.90;999.90;;;;;;;23.33;55.02;96310.19;5068353;28;20240;-68
2021/09/26 09:20:22;;;;;;;1999.90;999.90;;;;;;;23.33;56.22;96304.13;5068450;28;20622;-69
2021/09/26 09:22:53;;;;;;;1999.90;999.90;;;;;;;23.33;54.84;96304.13;5053955;28;20205;-68
2021/09/26 09:25:33;;;;;;;1999.90;999.90;;;;;;;23.40;54.32;96299.72;5068316;28;20193;-69
2021/09/26 09:28:01;;;;;;;1999.90;999.90;;;;;;;23.67;53.63;96308.47;5068237;28;20187;-69
2021/09/26 09:30:31;;;;;;;1999.90;999.90;;;;;;;23.50;56.24;96307.09;5068115;28;20269;-70
2021/09/26 09:32:58;;;;;;;1999.90;999.90;;;;;;;23.82;55.49;96301.47;5068182;28;20200;-69
2021/09/26 09:35:28;;;;;;;1999.90;999.90;;;;;;;23.93;53.37;96300.50;5068224;28;20217;-69
2021/09/26 09:37:57;;;;;;;1999.90;999.90;;;;;;;24.09;53.70;96299.56;5068198;28;20732;-69
2021/09/26 09:40:24;;;;;;;1999.90;999.90;;;;;;;24.16;53.00;96295.09;5069126;28;20201;-71
2021/09/26 09:42:54;;;;;;;1999.90;999.90;;;;;;;24.31;51.60;96296.06;5071920;28;20734;-70
2021/09/26 09:45:24;;;;;;;1999.90;999.90;;;;;;;24.53;50.63;96287.19;5072068;28;20200;-70
2021/09/26 09:48:08;;;;;;;1999.90;999.90;;;;;;;24.44;50.59;96279.53;5072017;28;20185;-69
2021/09/26 09:50:48;;;;;;;1999.90;999.90;;;;;;;24.38;51.86;96280.97;5071674;28;20196;-70
2021/09/26 09:53:28;;;;;;;1999.90;999.90;;;;;;;24.48;51.52;96279.56;5071877;28;20185;-69
2021/09/26 09:55:57;;;;;;;1999.90;999.90;;;;;;;24.62;49.94;96277.03;5071574;28;20271;-70
2021/09/26 09:58:25;;;;;;;1999.90;999.90;;;;;;;24.79;50.22;96267.72;5071540;28;20200;-70
2021/09/26 10:00:54;;;;;;;1999.90;999.90;;;;;;;25.07;50.10;96278.63;5071416;28;20188;-69
2021/09/26 10:03:42;;;;;;;1999.90;999.90;;;;;;;25.10;50.80;96267.28;5071766;28;20200;-69
2021/09/26 10:06:28;;;;;;;1999.90;999.90;;;;;;;24.68;50.85;96275.59;5071725;28;20568;-69
2021/09/26 10:08:58;;;;;;;1999.90;999.90;;;;;;;24.92;49.93;96268.22;5071396;28;20181;-68
2021/09/26 10:11:27;;;;;;;1999.90;999.90;;;;;;;24.92;49.05;96268.22;5071452;28;20677;-67
2021/09/26 10:13:54;;;;;;;1999.90;999.90;;;;;;;25.19;48.69;96258.97;5071780;28;20220;-68
2021/09/26 10:16:22;;;;;;;1999.90;999.90;;;;;;;25.42;48.54;96259.53;5071714;28;20204;-68
2021/09/26 10:18:50;;;;;;;1999.90;999.90;;;;;;;25.55;47.20;96246.72;5071451;28;20277;-68
2021/09/26 10:21:17;;;;;;;1999.90;999.90;;;;;;;25.60;47.60;96251.69;5071125;28;20251;-68
2021/09/26 10:23:46;;;;;;;1999.90;999.90;;;;;;;25.68;46.20;96243.38;5071538;28;20288;-69
2021/09/26 10:26:17;;;;;;;1999.90;999.90;;;;;;;25.70;46.77;96243.75;5071035;28;20211;-68
2021/09/26 10:28:46;;;;;;;1999.90;999.90;;;;;;;25.81;46.26;96240.38;5071011;28;20196;-69
2021/09/26 10:31:16;;;;;;;1999.90;999.90;;;;;;;25.92;46.32;96233.19;5070893;28;20269;-70
2021/09/26 10:33:46;;;;;;;1999.90;999.90;;;;;;;26.06;45.57;96226.03;5070961;28;20192;-68
2021/09/26 10:36:17;;;;;;;1999.90;999.90;;;;;;;26.19;44.59;96223.03;5071444;28;20535;-70
2021/09/26 10:38:45;;;;;;;1999.90;999.90;;;;;;;26.39;43.99;96217.03;5071076;28;20185;-69
2021/09/26 10:41:14;;;;;;;1999.90;999.90;;;;;;;26.16;44.78;96216.53;5071097;28;20205;-69
2021/09/26 10:43:42;;;;;;;1999.90;999.90;;;;;;;26.26;44.58;96213.19;5071052;28;20253;-69
2021/09/26 10:46:18;;;;;;;1999.90;999.90;;;;;;;26.12;44.92;96221.09;5070559;28;20218;-69
2021/09/26 10:49:05;;;;;;;1999.90;999.90;;;;;;;26.10;43.74;96210.06;5070640;28;20192;-68
2021/09/26 10:51:50;;;;;;;1999.90;999.90;;;;;;;26.23;43.89;96205.94;5070366;28;20192;-68
2021/09/26 10:54:32;;;;;;;1999.90;999.90;;;;;;;26.39;44.60;96208.28;5070419;28;20220;-69
2021/09/26 10:57:23;;;;;;;1999.90;999.90;;;;;;;26.59;42.94;96196.13;5070814;28;20193;-69
2021/09/26 10:59:53;;;;;;;1999.90;999.90;;;;;;;26.61;43.25;96207.16;5070680;28;20185;-69
2021/09/26 11:02:43;;;;;;;1999.90;999.90;;;;;;;26.57;41.65;96203.72;5070230;28;20222;-69